Time;durP1;ratioP1;P1;durP2;ratioP2;P2;SDS_P1;SDS_P2;PMS_P1;PMS_P2;Temp;Humidity;BMP_temperature;BMP_pressure;BME280_temperature;BME280_humidity;BME280_pressure;Samples;Min_cycle;Max_cycle;Signal;HPM_P1;HPM_P2
2024/01/08 00:01:06;;;;;;;117.75;54.42;;;13.40;63.80;;;;;;4885316;28;90367;-79
2024/01/08 00:03:31;;;;;;;117.05;54.10;;;13.40;63.80;;;;;;4886579;28;90230;-79
2024/01/08 00:05:57;;;;;;;118.57;54.40;;;13.30;63.70;;;;;;4883528;28;89381;-80
2024/01/08 00:08:23;;;;;;;116.70;54.42;;;13.30;63.80;;;;;;4882111;28;90054;-80
2024/01/08 00:10:48;;;;;;;118.22;54.33;;;13.30;63.90;;;;;;4886772;28;90040;-79
2024/01/08 00:13:14;;;;;;;117.72;54.33;;;13.20;64.10;;;;;;4883475;28;91267;-78
2024/01/08 00:15:39;;;;;;;118.45;54.38;;;13.20;64.10;;;;;;4883602;28;93984;-79
2024/01/08 00:18:05;;;;;;;117.55;54.20;;;13.20;64.00;;;;;;4881758;28;90070;-80
2024/01/08 00:20:31;;;;;;;116.85;54.38;;;13.20;64.00;;;;;;4887242;28;89883;-79
2024/01/08 00:22:56;;;;;;;117.95;54.28;;;13.20;64.20;;;;;;4883329;28;89896;-82
2024/01/08 00:25:22;;;;;;;117.28;54.38;;;13.20;63.80;;;;;;4884630;28;90507;-81
2024/01/08 00:27:49;;;;;;;117.28;54.55;;;13.20;64.00;;;;;;4884591;28;90559;-79
2024/01/08 00:30:16;;;;;;;117.32;54.15;;;13.10;64.00;;;;;;4883451;28;89216;-81
2024/01/08 00:32:42;;;;;;;115.68;53.85;;;13.10;64.10;;;;;;4880212;28;94558;-80
2024/01/08 00:35:08;;;;;;;116.00;54.25;;;13.10;64.30;;;;;;4886632;28;89835;-80
2024/01/08 00:37:41;;;;;;;116.25;54.05;;;13.10;64.30;;;;;;4881257;28;90327;-79
2024/01/08 00:40:10;;;;;;;115.78;53.78;;;13.10;64.20;;;;;;4882716;28;89903;-80
2024/01/08 00:42:37;;;;;;;116.60;54.20;;;13.10;64.10;;;;;;4884896;28;92934;-79
2024/01/08 00:45:04;;;;;;;115.57;54.03;;;13.10;64.30;;;;;;4882172;28;91304;-79
2024/01/08 00:47:30;;;;;;;116.68;54.08;;;13.00;64.10;;;;;;4883057;28;89333;-81
2024/01/08 00:49:56;;;;;;;116.68;53.85;;;13.00;64.10;;;;;;4884178;28;89264;-80
2024/01/08 00:52:21;;;;;;;116.63;53.92;;;12.90;64.30;;;;;;4883737;28;92593;-79
2024/01/08 00:54:47;;;;;;;116.20;54.13;;;12.90;64.10;;;;;;4883530;28;88955;-79
2024/01/08 00:57:13;;;;;;;117.18;54.08;;;12.90;64.20;;;;;;4882250;28;89859;-82
2024/01/08 00:59:38;;;;;;;116.30;53.63;;;12.90;64.30;;;;;;4884360;28;90046;-84
2024/01/08 01:02:04;;;;;;;114.45;53.33;;;13.00;64.50;;;;;;4882793;28;90625;-83
2024/01/08 01:04:29;;;;;;;116.30;53.75;;;12.90;64.30;;;;;;4885128;28;90461;-83
2024/01/08 01:06:55;;;;;;;116.43;53.90;;;12.90;64.00;;;;;;4881925;28;89181;-83
2024/01/08 01:09:21;;;;;;;116.50;54.00;;;12.90;64.40;;;;;;4883415;28;90527;-83
2024/01/08 01:11:46;;;;;;;115.50;53.45;;;12.80;64.20;;;;;;4886984;28;90125;-83
2024/01/08 01:14:12;;;;;;;115.88;54.00;;;12.80;64.20;;;;;;4882117;28;92131;-83
2024/01/08 01:16:38;;;;;;;116.30;53.92;;;12.80;64.30;;;;;;4887195;28;89599;-82
2024/01/08 01:19:04;;;;;;;116.57;54.13;;;12.80;64.30;;;;;;4883320;28;88576;-83
2024/01/08 01:21:29;;;;;;;115.70;53.83;;;12.80;64.20;;;;;;4881785;28;89253;-83
2024/01/08 01:23:55;;;;;;;116.25;53.80;;;12.80;64.20;;;;;;4884259;28;89446;-83
2024/01/08 01:26:21;;;;;;;114.97;53.40;;;12.80;64.20;;;;;;4884430;28;90012;-83
2024/01/08 01:28:47;;;;;;;117.18;53.90;;;12.80;64.30;;;;;;4887324;28;89724;-83
2024/01/08 01:31:13;;;;;;;117.07;53.72;;;12.80;64.20;;;;;;4901328;28;89682;-83
2024/01/08 01:33:39;;;;;;;115.80;53.38;;;12.70;64.30;;;;;;4913652;28;91121;-83
2024/01/08 01:36:08;;;;;;;115.47;53.50;;;12.80;64.20;;;;;;4913385;28;89529;-83
2024/01/08 01:38:33;;;;;;;117.53;54.17;;;12.70;64.20;;;;;;4911929;28;88724;-83
2024/01/08 01:40:59;;;;;;;115.65;54.00;;;12.70;64.30;;;;;;4902177;28;89880;-84
2024/01/08 01:43:31;;;;;;;116.05;54.08;;;12.70;64.30;;;;;;4891292;28;88641;-84
2024/01/08 01:46:01;;;;;;;116.10;53.50;;;12.70;64.40;;;;;;4890865;28;88854;-83
2024/01/08 01:48:28;;;;;;;116.47;54.13;;;12.70;64.50;;;;;;4891103;28;88882;-83
2024/01/08 01:50:54;;;;;;;117.15;54.13;;;12.60;64.30;;;;;;4888213;28;93689;-83
2024/01/08 01:53:20;;;;;;;115.35;54.03;;;12.60;64.20;;;;;;4891194;28;92134;-84
2024/01/08 01:55:46;;;;;;;115.97;54.13;;;12.60;64.40;;;;;;4888484;28;89609;-84
2024/01/08 01:58:14;;;;;;;117.63;53.70;;;12.60;64.30;;;;;;4889360;28;89333;-83
2024/01/08 02:00:40;;;;;;;115.85;53.80;;;12.60;64.40;;;;;;4886359;28;92287;-82
2024/01/08 02:03:06;;;;;;;115.03;53.70;;;12.60;64.30;;;;;;4884632;28;92392;-82
2024/01/08 02:05:33;;;;;;;115.60;53.55;;;12.60;64.30;;;;;;4886724;28;89411;-82
2024/01/08 02:07:59;;;;;;;115.78;53.92;;;12.60;64.40;;;;;;4889216;28;88299;-82
2024/01/08 02:10:26;;;;;;;116.22;53.63;;;12.60;64.10;;;;;;4888051;28;89586;-82
2024/01/08 02:12:51;;;;;;;115.03;53.40;;;12.60;64.00;;;;;;4887212;28;92523;-82
2024/01/08 02:15:17;;;;;;;114.13;53.17;;;12.60;64.10;;;;;;4881868;28;90282;-82
2024/01/08 02:17:43;;;;;;;114.93;53.50;;;12.60;64.30;;;;;;4887827;28;89680;-82
2024/01/08 02:20:09;;;;;;;114.65;53.28;;;12.60;64.10;;;;;;4885782;28;90130;-82
2024/01/08 02:22:41;;;;;;;114.22;52.92;;;12.60;64.00;;;;;;4884912;28;90985;-82
2024/01/08 02:25:11;;;;;;;115.97;53.25;;;12.60;63.90;;;;;;4887580;28;88756;-82
2024/01/08 02:27:36;;;;;;;117.28;53.58;;;12.60;64.00;;;;;;4887696;28;89692;-82
2024/01/08 02:30:02;;;;;;;115.35;53.28;;;12.60;63.80;;;;;;4883643;28;90531;-82
2024/01/08 02:32:30;;;;;;;114.70;53.15;;;12.60;63.60;;;;;;4888286;28;90363;-80
2024/01/08 02:34:55;;;;;;;115.13;53.47;;;12.60;63.60;;;;;;4885494;28;89345;-79
2024/01/08 02:37:21;;;;;;;115.50;53.75;;;12.60;63.70;;;;;;4888152;28;90243;-79
2024/01/08 02:39:47;;;;;;;115.78;53.35;;;12.50;63.60;;;;;;4884892;28;90385;-78
2024/01/08 02:42:18;;;;;;;115.38;53.72;;;12.50;63.30;;;;;;4887894;28;89907;-79
2024/01/08 02:44:43;;;;;;;114.78;53.85;;;12.40;63.50;;;;;;4889425;28;90039;-79
2024/01/08 02:47:09;;;;;;;114.82;53.80;;;12.50;63.50;;;;;;4892509;28;89729;-78
2024/01/08 02:49:35;;;;;;;115.07;53.92;;;12.40;63.40;;;;;;4902957;28;90504;-81
2024/01/08 02:52:00;;;;;;;113.90;53.22;;;12.50;63.50;;;;;;4909447;28;92299;-81
2024/01/08 02:54:26;;;;;;;115.50;53.72;;;12.50;63.60;;;;;;4908169;28;90278;-81
2024/01/08 02:56:52;;;;;;;114.82;53.53;;;12.50;63.30;;;;;;4910285;28;88200;-81
2024/01/08 02:59:17;;;;;;;114.45;53.45;;;12.40;63.30;;;;;;4889375;28;89410;-79
2024/01/08 03:01:43;;;;;;;113.68;53.45;;;12.50;63.50;;;;;;4886016;28;90814;-79
2024/01/08 03:04:09;;;;;;;115.10;53.50;;;12.50;63.70;;;;;;4887979;28;90286;-80
2024/01/08 03:06:35;;;;;;;114.68;53.42;;;12.50;63.40;;;;;;4887194;28;89054;-81
2024/01/08 03:09:00;;;;;;;115.05;53.33;;;12.50;63.40;;;;;;4887881;28;90220;-79
2024/01/08 03:11:27;;;;;;;115.10;53.35;;;12.50;63.30;;;;;;4885606;28;90662;-81
2024/01/08 03:13:53;;;;;;;114.22;53.00;;;12.50;63.20;;;;;;4881670;28;89314;-80
2024/01/08 03:16:18;;;;;;;113.72;53.10;;;12.50;63.20;;;;;;4888797;28;89307;-78
2024/01/08 03:18:45;;;;;;;114.20;53.25;;;12.40;63.20;;;;;;4885992;28;89364;-78
2024/01/08 03:21:11;;;;;;;114.20;53.45;;;12.40;63.20;;;;;;4898066;28;93091;-78
2024/01/08 03:23:37;;;;;;;113.82;52.92;;;12.40;63.10;;;;;;4885973;28;89488;-79
2024/01/08 03:26:02;;;;;;;112.78;52.83;;;12.40;63.10;;;;;;4887341;28;89112;-78
2024/01/08 03:28:28;;;;;;;114.57;53.28;;;12.30;63.00;;;;;;4885954;28;91180;-79
2024/01/08 03:30:54;;;;;;;114.25;53.13;;;12.30;63.20;;;;;;4885304;28;90237;-79
2024/01/08 03:33:19;;;;;;;115.05;53.28;;;12.40;63.10;;;;;;4886299;28;89500;-78
2024/01/08 03:35:45;;;;;;;114.47;53.03;;;12.40;62.90;;;;;;4885940;28;89474;-79
2024/01/08 03:38:11;;;;;;;113.50;53.30;;;12.30;63.10;;;;;;4886703;28;90173;-81
2024/01/08 03:40:36;;;;;;;114.15;53.28;;;12.30;62.90;;;;;;4884180;28;93193;-82
2024/01/08 03:43:02;;;;;;;114.28;53.33;;;12.30;62.90;;;;;;4880801;28;89249;-82
2024/01/08 03:45:28;;;;;;;114.13;53.38;;;12.30;62.90;;;;;;4881017;28;89365;-82
2024/01/08 03:47:54;;;;;;;114.75;53.10;;;12.30;62.80;;;;;;4885311;28;90040;-82
2024/01/08 03:50:19;;;;;;;114.90;53.25;;;12.30;62.90;;;;;;4884508;28;89032;-82
2024/01/08 03:52:45;;;;;;;113.47;52.88;;;12.30;63.00;;;;;;4886018;28;89896;-82
2024/01/08 03:55:11;;;;;;;114.25;53.22;;;12.30;63.20;;;;;;4885635;28;88650;-82
2024/01/08 03:57:37;;;;;;;114.45;53.47;;;12.30;62.90;;;;;;4888474;28;89613;-81
2024/01/08 04:00:03;;;;;;;113.40;53.05;;;12.30;63.20;;;;;;4883428;28;89362;-81
2024/01/08 04:02:29;;;;;;;113.53;53.15;;;12.30;63.10;;;;;;4883179;28;89550;-81
2024/01/08 04:04:55;;;;;;;113.97;53.35;;;12.30;62.90;;;;;;4878940;28;89008;-81
2024/01/08 04:07:20;;;;;;;113.68;53.17;;;12.30;62.80;;;;;;4883998;28;95499;-81
2024/01/08 04:09:46;;;;;;;114.05;53.53;;;12.30;62.60;;;;;;4884314;28;88909;-81
2024/01/08 04:12:12;;;;;;;114.03;53.65;;;12.30;62.50;;;;;;4884668;28;89040;-81
2024/01/08 04:14:38;;;;;;;113.22;52.92;;;12.30;62.50;;;;;;4879790;28;89544;-78
2024/01/08 04:17:05;;;;;;;114.43;53.33;;;12.30;62.50;;;;;;4886756;28;90742;-79
2024/01/08 04:19:31;;;;;;;114.68;53.20;;;12.30;62.50;;;;;;4887987;28;90087;-80
2024/01/08 04:21:57;;;;;;;114.32;53.22;;;12.20;62.50;;;;;;4884007;28;89919;-81
2024/01/08 04:24:24;;;;;;;113.38;53.38;;;12.20;62.40;;;;;;4886027;28;89212;-79
2024/01/08 04:26:50;;;;;;;114.78;53.90;;;12.20;62.10;;;;;;4881527;28;92404;-79
2024/01/08 04:29:16;;;;;;;113.72;53.33;;;12.20;61.80;;;;;;4886051;28;89944;-79
2024/01/08 04:31:42;;;;;;;114.45;53.22;;;12.20;61.80;;;;;;4888375;28;88917;-79
2024/01/08 04:34:09;;;;;;;113.35;52.85;;;12.20;61.50;;;;;;4883579;28;88512;-80
2024/01/08 04:36:40;;;;;;;112.97;53.05;;;12.20;61.20;;;;;;4884594;28;93616;-79
2024/01/08 04:39:05;;;;;;;114.47;53.60;;;12.20;61.40;;;;;;4883620;28;89806;-79
2024/01/08 04:41:31;;;;;;;112.25;52.63;;;12.20;61.30;;;;;;4887381;28;90313;-79
2024/01/08 04:43:56;;;;;;;114.30;53.33;;;12.20;61.40;;;;;;4882452;28;89226;-80
2024/01/08 04:46:22;;;;;;;113.88;53.30;;;12.20;62.20;;;;;;4885129;28;92968;-80
2024/01/08 04:48:48;;;;;;;114.85;53.13;;;12.20;61.50;;;;;;4879603;28;89379;-79
2024/01/08 04:51:24;;;;;;;113.10;52.78;;;12.20;61.30;;;;;;4884867;28;89202;-80
2024/01/08 04:53:50;;;;;;;113.85;53.38;;;12.20;61.20;;;;;;4882880;28;89624;-79
2024/01/08 04:56:23;;;;;;;113.47;53.03;;;12.20;61.30;;;;;;4886580;28;90240;-79
2024/01/08 04:58:50;;;;;;;113.35;53.15;;;12.20;61.30;;;;;;4886807;28;89070;-78
2024/01/08 05:01:16;;;;;;;112.75;53.10;;;12.20;61.40;;;;;;4873216;28;89596;-79
2024/01/08 05:03:42;;;;;;;113.63;53.50;;;12.20;61.40;;;;;;4881134;28;94743;-83
2024/01/08 05:06:08;;;;;;;113.43;52.85;;;12.10;61.80;;;;;;4884022;28;90737;-82
2024/01/08 05:08:33;;;;;;;113.57;52.85;;;12.20;61.90;;;;;;4885305;28;93865;-81
2024/01/08 05:10:59;;;;;;;112.95;52.78;;;12.20;62.00;;;;;;4888313;28;88720;-80
2024/01/08 05:13:25;;;;;;;114.07;52.95;;;12.20;61.80;;;;;;4882944;28;90383;-87
2024/01/08 05:15:51;;;;;;;113.80;52.85;;;12.20;62.00;;;;;;4887945;28;92575;-80
2024/01/08 05:18:17;;;;;;;114.53;52.95;;;12.20;62.20;;;;;;4881051;28;89943;-80
2024/01/08 05:20:42;;;;;;;116.90;53.30;;;12.20;62.50;;;;;;4881741;28;91448;-80
2024/01/08 05:23:08;;;;;;;117.80;52.92;;;12.20;62.20;;;;;;4887201;28;88295;-80
2024/01/08 05:25:34;;;;;;;114.88;52.95;;;12.20;62.20;;;;;;4885526;28;89235;-81
2024/01/08 05:28:00;;;;;;;114.03;52.90;;;12.20;62.40;;;;;;4883873;28;91001;-81
2024/01/08 05:30:26;;;;;;;116.80;53.05;;;12.10;62.40;;;;;;4881582;28;90733;-81
2024/01/08 05:32:53;;;;;;;115.50;53.30;;;12.20;62.30;;;;;;4889495;28;89341;-81
2024/01/08 05:35:19;;;;;;;117.43;53.40;;;12.10;62.20;;;;;;4885269;28;90561;-81
2024/01/08 05:37:44;;;;;;;113.72;53.20;;;12.10;62.30;;;;;;4880305;28;89642;-79
2024/01/08 05:40:11;;;;;;;115.32;53.30;;;12.10;62.40;;;;;;4882658;28;89244;-80
2024/01/08 05:42:38;;;;;;;118.57;53.65;;;12.20;62.20;;;;;;4885186;28;91217;-80
2024/01/08 05:45:04;;;;;;;117.70;52.83;;;12.20;62.10;;;;;;4886531;28;92541;-81
2024/01/08 05:47:29;;;;;;;118.38;53.20;;;12.10;62.30;;;;;;4884362;28;89736;-81
2024/01/08 05:49:55;;;;;;;117.32;53.60;;;12.10;62.20;;;;;;4885811;28;89232;-81
2024/01/08 05:52:21;;;;;;;116.80;53.55;;;12.10;62.30;;;;;;4884277;28;88450;-82
2024/01/08 05:54:46;;;;;;;115.03;53.08;;;12.10;62.30;;;;;;4877560;28;98687;-81
2024/01/08 05:57:12;;;;;;;114.45;53.60;;;12.10;62.40;;;;;;4884159;28;89949;-81
2024/01/08 05:59:38;;;;;;;117.30;53.53;;;12.10;62.60;;;;;;4883630;28;88906;-80
2024/01/08 06:02:04;;;;;;;118.28;53.55;;;12.10;62.50;;;;;;4884302;28;90039;-82
2024/01/08 06:04:30;;;;;;;119.32;53.65;;;12.10;62.70;;;;;;4877884;28;89442;-81
2024/01/08 06:06:56;;;;;;;119.10;53.88;;;12.10;62.30;;;;;;4879953;28;90564;-81
2024/01/08 06:09:21;;;;;;;124.80;53.22;;;12.10;62.50;;;;;;4884497;28;89675;-80
2024/01/08 06:11:47;;;;;;;113.90;53.10;;;12.10;62.40;;;;;;4878993;28;88652;-83
2024/01/08 06:14:13;;;;;;;120.20;53.88;;;12.10;62.30;;;;;;4883057;28;92820;-82
2024/01/08 06:16:38;;;;;;;119.80;53.60;;;12.10;62.60;;;;;;4884417;28;89520;-82
2024/01/08 06:19:04;;;;;;;121.60;53.83;;;12.10;63.00;;;;;;4884084;28;90605;-79
2024/01/08 06:21:30;;;;;;;117.20;53.60;;;12.10;63.00;;;;;;4881190;28;89563;-81
2024/01/08 06:23:55;;;;;;;118.63;53.53;;;12.10;63.10;;;;;;4885876;28;89934;-81
2024/01/08 06:26:21;;;;;;;122.93;53.88;;;12.10;63.30;;;;;;4886257;28;90621;-81
2024/01/08 06:28:47;;;;;;;117.68;53.50;;;12.00;63.70;;;;;;4890056;28;89638;-80
2024/01/08 06:31:13;;;;;;;119.18;53.28;;;12.00;63.70;;;;;;4890714;28;90001;-82
2024/01/08 06:33:39;;;;;;;116.22;53.65;;;12.00;63.80;;;;;;4886236;28;89982;-79
2024/01/08 06:36:04;;;;;;;123.45;54.63;;;12.00;63.70;;;;;;4889359;28;88773;-80
2024/01/08 06:38:30;;;;;;;119.10;54.28;;;12.00;64.10;;;;;;4894301;28;88462;-81
2024/01/08 06:40:56;;;;;;;119.82;54.03;;;11.90;63.90;;;;;;4892390;28;89891;-82
2024/01/08 06:43:21;;;;;;;120.80;54.63;;;11.90;64.30;;;;;;4880320;28;93488;-83
2024/01/08 06:45:49;;;;;;;118.00;54.13;;;11.90;64.70;;;;;;4881120;28;90536;-82
2024/01/08 06:48:14;;;;;;;121.18;54.92;;;11.90;64.50;;;;;;4885565;28;90556;-82
2024/01/08 06:50:40;;;;;;;115.72;54.33;;;11.80;64.50;;;;;;4883809;28;88970;-83
2024/01/08 06:53:06;;;;;;;121.38;54.85;;;11.90;64.60;;;;;;4883866;28;90279;-83
2024/01/08 06:55:31;;;;;;;120.35;54.75;;;11.80;64.30;;;;;;4880520;28;91876;-83
2024/01/08 06:57:57;;;;;;;121.20;54.78;;;11.80;64.20;;;;;;4885529;28;89137;-83
2024/01/08 07:00:25;;;;;;;117.53;54.22;;;11.80;65.00;;;;;;4889121;28;88612;-83
2024/01/08 07:02:51;;;;;;;117.72;54.25;;;11.80;64.20;;;;;;4885752;28;89703;-82
2024/01/08 07:05:18;;;;;;;122.90;54.50;;;11.90;64.00;;;;;;4890554;28;90335;-83
2024/01/08 07:07:44;;;;;;;116.28;53.75;;;11.80;63.70;;;;;;4887614;28;89542;-82
2024/01/08 07:10:10;;;;;;;124.63;54.72;;;11.80;63.70;;;;;;4888745;28;89372;-82
2024/01/08 07:12:35;;;;;;;120.72;54.13;;;11.80;63.60;;;;;;4895338;28;90439;-83
2024/01/08 07:15:04;;;;;;;132.30;54.70;;;11.80;63.30;;;;;;4885983;28;92135;-83
2024/01/08 07:17:30;;;;;;;121.28;54.00;;;11.90;63.40;;;;;;4888534;28;89033;-83
2024/01/08 07:19:55;;;;;;;118.75;54.45;;;11.80;63.00;;;;;;4885728;28;88953;-82
2024/01/08 07:22:21;;;;;;;122.22;54.13;;;11.80;63.20;;;;;;4885078;28;89958;-82
2024/01/08 07:24:48;;;;;;;119.63;53.65;;;11.80;63.10;;;;;;4882734;28;92700;-83
2024/01/08 07:27:13;;;;;;;115.70;53.42;;;11.80;63.00;;;;;;4884500;28;90870;-81
2024/01/08 07:29:39;;;;;;;117.60;53.55;;;11.80;63.10;;;;;;4887826;28;89717;-82
2024/01/08 07:32:05;;;;;;;120.18;54.60;;;11.80;63.00;;;;;;4888620;28;91335;-83
2024/01/08 07:34:30;;;;;;;116.22;53.33;;;11.80;62.90;;;;;;4888688;28;90341;-83
2024/01/08 07:36:56;;;;;;;118.18;53.95;;;11.80;62.80;;;;;;4883776;28;89280;-83
2024/01/08 07:39:22;;;;;;;116.40;53.53;;;11.80;62.70;;;;;;4890715;28;89788;-83
2024/01/08 07:41:49;;;;;;;117.72;53.53;;;11.80;62.70;;;;;;4886510;28;90578;-82
2024/01/08 07:44:15;;;;;;;116.22;53.72;;;11.80;62.60;;;;;;4885277;28;89670;-82
2024/01/08 07:46:42;;;;;;;115.75;53.38;;;11.80;62.50;;;;;;4887026;28;89167;-82
2024/01/08 07:49:09;;;;;;;118.05;53.85;;;11.80;62.60;;;;;;4887490;28;87895;-86
2024/01/08 07:51:34;;;;;;;116.70;53.63;;;11.70;62.60;;;;;;4883844;28;89899;-86
2024/01/08 07:54:00;;;;;;;119.38;53.75;;;11.80;62.60;;;;;;4884205;28;91864;-87
2024/01/08 07:56:26;;;;;;;115.18;53.80;;;11.80;62.40;;;;;;4888886;28;90125;-85
2024/01/08 07:58:53;;;;;;;115.07;53.47;;;11.80;62.60;;;;;;4889995;28;89837;-87
2024/01/08 08:01:18;;;;;;;114.30;53.72;;;11.70;62.50;;;;;;4887812;28;89611;-86
2024/01/08 08:03:44;;;;;;;117.00;53.92;;;11.80;62.60;;;;;;4891599;28;91673;-86
2024/01/08 08:06:10;;;;;;;115.10;53.45;;;11.70;62.40;;;;;;4887464;28;89391;-86
2024/01/08 08:08:36;;;;;;;114.93;53.42;;;11.70;62.50;;;;;;4892775;28;89581;-86
2024/01/08 08:11:03;;;;;;;113.82;53.78;;;11.70;62.50;;;;;;4906164;28;89169;-85
2024/01/08 08:13:30;;;;;;;113.80;53.33;;;11.70;62.50;;;;;;4914557;28;89245;-85
2024/01/08 08:15:55;;;;;;;115.75;53.47;;;11.70;62.50;;;;;;4910292;28;88347;-85
2024/01/08 08:18:21;;;;;;;116.15;53.17;;;11.70;62.50;;;;;;4907585;28;88905;-86
2024/01/08 08:20:47;;;;;;;115.90;53.25;;;11.70;62.50;;;;;;4894122;28;92449;-86
2024/01/08 08:23:12;;;;;;;114.20;53.63;;;11.70;62.30;;;;;;4891155;28;89622;-86
2024/01/08 08:25:39;;;;;;;113.95;53.47;;;11.70;62.40;;;;;;4888168;28;89396;-87
2024/01/08 08:28:05;;;;;;;113.20;53.35;;;11.70;62.40;;;;;;4888133;28;88731;-87
2024/01/08 08:30:31;;;;;;;116.47;53.03;;;11.70;62.40;;;;;;4888126;28;89625;-87
2024/01/08 08:32:58;;;;;;;114.20;52.83;;;11.70;62.30;;;;;;4888295;28;89655;-87
2024/01/08 08:35:25;;;;;;;114.18;53.53;;;11.60;62.40;;;;;;4887687;28;89034;-85
2024/01/08 08:37:51;;;;;;;113.78;53.60;;;11.60;62.30;;;;;;4888786;28;89946;-87
2024/01/08 08:40:16;;;;;;;114.75;53.10;;;11.70;62.30;;;;;;4886892;28;89834;-87
2024/01/08 08:42:42;;;;;;;113.32;53.35;;;11.70;62.30;;;;;;4891324;28;89329;-86
2024/01/08 08:45:09;;;;;;;115.22;53.10;;;11.70;62.00;;;;;;4886010;28;89944;-87
2024/01/08 08:47:34;;;;;;;113.78;53.30;;;11.70;62.20;;;;;;4890190;28;89189;-86
2024/01/08 08:50:00;;;;;;;117.72;53.38;;;11.70;62.30;;;;;;4891602;28;88959;-86
2024/01/08 08:52:26;;;;;;;113.15;53.15;;;11.70;62.30;;;;;;4885587;28;88951;-86
2024/01/08 08:54:52;;;;;;;112.30;53.08;;;11.70;62.10;;;;;;4889915;28;89210;-86
2024/01/08 08:57:17;;;;;;;113.78;53.20;;;11.60;62.30;;;;;;4888728;28;89804;-85
2024/01/08 08:59:43;;;;;;;113.72;53.05;;;11.70;62.20;;;;;;4884924;28;89376;-79
2024/01/08 09:02:09;;;;;;;113.32;53.58;;;11.60;62.20;;;;;;4886299;28;93974;-79
2024/01/08 09:04:35;;;;;;;114.65;53.25;;;11.70;62.20;;;;;;4885136;28;89367;-78
2024/01/08 09:07:00;;;;;;;114.28;53.17;;;11.70;62.10;;;;;;4883051;28;89536;-78
2024/01/08 09:09:26;;;;;;;112.32;52.83;;;11.60;62.10;;;;;;4886402;28;90441;-79
2024/01/08 09:11:52;;;;;;;112.75;52.95;;;11.60;62.10;;;;;;4886959;28;90819;-81
2024/01/08 09:14:18;;;;;;;114.43;53.70;;;11.70;62.10;;;;;;4889440;28;89218;-79
2024/01/08 09:16:44;;;;;;;111.90;52.55;;;11.60;62.10;;;;;;4882984;28;89176;-82
2024/01/08 09:19:09;;;;;;;112.70;52.92;;;11.70;61.90;;;;;;4886443;28;91393;-79
2024/01/08 09:21:35;;;;;;;113.15;53.17;;;11.70;62.00;;;;;;4880949;28;89445;-81
2024/01/08 09:24:01;;;;;;;111.88;52.75;;;11.70;61.80;;;;;;4884301;28;89002;-79
2024/01/08 09:26:27;;;;;;;112.53;53.40;;;11.70;61.90;;;;;;4885966;28;88385;-78
2024/01/08 09:28:52;;;;;;;112.63;53.45;;;11.70;61.90;;;;;;4881752;28;91638;-80
2024/01/08 09:31:18;;;;;;;112.53;52.88;;;11.70;61.80;;;;;;4886296;28;89650;-79
2024/01/08 09:33:44;;;;;;;112.40;52.90;;;11.70;61.70;;;;;;4884241;28;90834;-78
2024/01/08 09:36:09;;;;;;;113.88;52.90;;;11.70;61.70;;;;;;4883810;28;89130;-78
2024/01/08 09:38:35;;;;;;;113.03;53.30;;;11.70;61.40;;;;;;4890694;28;89261;-79
2024/01/08 09:41:01;;;;;;;113.63;53.60;;;11.70;61.40;;;;;;4884669;28;89442;-78
2024/01/08 09:43:28;;;;;;;114.65;53.63;;;11.70;61.50;;;;;;4881270;28;89064;-79
2024/01/08 09:46:07;;;;;;;111.82;52.78;;;11.70;61.40;;;;;;4882245;28;89401;-79
2024/01/08 09:48:34;;;;;;;114.05;53.33;;;11.80;61.40;;;;;;4882773;28;92619;-79
2024/01/08 09:51:01;;;;;;;112.63;52.97;;;11.70;61.30;;;;;;4883415;28;89385;-79
2024/01/08 09:53:31;;;;;;;113.40;53.30;;;11.70;61.40;;;;;;4882018;28;89638;-79
2024/01/08 09:55:58;;;;;;;112.30;53.10;;;11.70;61.20;;;;;;4885243;28;89560;-78
2024/01/08 09:58:25;;;;;;;112.63;53.35;;;11.70;61.10;;;;;;4884077;28;90335;-78
2024/01/08 10:00:52;;;;;;;112.53;53.15;;;11.70;61.10;;;;;;4888122;28;91576;-80
2024/01/08 10:03:18;;;;;;;114.63;53.13;;;11.70;61.10;;;;;;4886842;28;89625;-78
2024/01/08 10:05:43;;;;;;;113.00;52.95;;;11.70;61.10;;;;;;4891120;28;89156;-78
2024/01/08 10:08:09;;;;;;;112.78;53.50;;;11.70;61.10;;;;;;4885251;28;93190;-79
2024/01/08 10:10:35;;;;;;;113.13;53.00;;;11.70;60.90;;;;;;4892217;28;91284;-86
2024/01/08 10:13:01;;;;;;;112.05;52.88;;;11.70;61.10;;;;;;4885112;28;89168;-86
2024/01/08 10:15:27;;;;;;;112.15;53.10;;;11.70;61.10;;;;;;4892558;28;88953;-86
2024/01/08 10:17:55;;;;;;;112.32;53.13;;;11.70;61.00;;;;;;4893185;28;90190;-85
2024/01/08 10:20:21;;;;;;;112.70;53.03;;;11.70;61.00;;;;;;4892541;28;92973;-85
2024/01/08 10:23:02;;;;;;;112.72;53.17;;;11.70;60.80;;;;;;4888286;28;90265;-86
2024/01/08 10:25:28;;;;;;;113.18;53.05;;;11.70;60.70;;;;;;4888247;28;89391;-86
2024/01/08 10:27:55;;;;;;;112.82;53.20;;;11.70;60.60;;;;;;4883973;28;93178;-85
2024/01/08 10:30:21;;;;;;;112.32;53.05;;;11.70;60.50;;;;;;4888917;28;89452;-86
2024/01/08 10:32:47;;;;;;;111.97;52.78;;;11.70;60.40;;;;;;4887701;28;88658;-86
2024/01/08 10:35:13;;;;;;;113.65;53.08;;;11.70;60.50;;;;;;4884937;28;89442;-86
2024/01/08 10:37:41;;;;;;;113.68;53.33;;;11.70;60.30;;;;;;4890618;28;91354;-86
2024/01/08 10:40:09;;;;;;;112.72;52.92;;;11.70;60.10;;;;;;4887851;28;89626;-86
2024/01/08 10:42:38;;;;;;;113.03;52.72;;;11.70;60.00;;;;;;4891214;28;88962;-86
2024/01/08 10:45:04;;;;;;;113.47;53.42;;;11.70;60.00;;;;;;4890133;28;89030;-85
2024/01/08 10:47:35;;;;;;;112.85;53.25;;;11.70;60.10;;;;;;4891231;28;90554;-86
2024/01/08 10:50:05;;;;;;;112.60;52.88;;;11.70;60.90;;;;;;4887617;28;93745;-84
2024/01/08 10:52:34;;;;;;;112.32;52.92;;;11.70;60.00;;;;;;4884081;28;89257;-85
2024/01/08 10:55:01;;;;;;;113.32;53.22;;;11.70;60.00;;;;;;4887349;28;89362;-86
2024/01/08 10:57:41;;;;;;;113.53;53.58;;;11.70;60.00;;;;;;4889005;28;88992;-85
2024/01/08 11:00:12;;;;;;;113.95;53.40;;;11.70;60.00;;;;;;4888493;28;89685;-86
2024/01/08 11:02:39;;;;;;;112.80;53.25;;;11.70;60.00;;;;;;4887843;28;88903;-85
2024/01/08 11:05:06;;;;;;;113.32;53.45;;;11.60;60.10;;;;;;4889544;28;88268;-85
2024/01/08 11:07:37;;;;;;;111.90;52.85;;;11.70;60.20;;;;;;4887558;28;89475;-86
2024/01/08 11:10:04;;;;;;;113.68;53.20;;;11.70;60.00;;;;;;4888309;28;89165;-86
2024/01/08 11:12:31;;;;;;;113.28;52.78;;;11.70;60.00;;;;;;4896142;28;89613;-86
2024/01/08 11:15:04;;;;;;;113.75;53.38;;;11.70;59.90;;;;;;4914474;28;88736;-82
2024/01/08 11:17:30;;;;;;;113.90;53.25;;;11.80;59.90;;;;;;4916875;28;89866;-84
2024/01/08 11:19:57;;;;;;;113.93;53.72;;;11.70;59.80;;;;;;4907165;28;89527;-81
2024/01/08 11:22:23;;;;;;;113.57;53.53;;;11.80;59.70;;;;;;4899289;28;89274;-80
2024/01/08 11:24:49;;;;;;;112.13;53.05;;;11.70;59.40;;;;;;4886505;28;88995;-80
2024/01/08 11:27:16;;;;;;;114.05;53.45;;;11.70;59.80;;;;;;4890378;28;92743;-80
2024/01/08 11:29:45;;;;;;;113.95;53.25;;;11.70;59.50;;;;;;4886663;28;89785;-80
2024/01/08 11:32:30;;;;;;;116.07;53.38;;;11.70;59.40;;;;;;4885716;28;88984;-80
2024/01/08 11:34:59;;;;;;;114.55;53.28;;;11.70;59.40;;;;;;4885413;28;88481;-80
2024/01/08 11:37:32;;;;;;;111.90;53.00;;;11.70;59.40;;;;;;4887863;28;90941;-80
2024/01/08 11:40:02;;;;;;;113.15;53.15;;;11.70;59.30;;;;;;4888619;28;91631;-80
2024/01/08 11:42:28;;;;;;;113.65;53.40;;;11.70;59.30;;;;;;4885608;28;89366;-80
2024/01/08 11:44:58;;;;;;;113.43;52.85;;;11.70;59.50;;;;;;4880839;28;89200;-80
2024/01/08 11:47:23;;;;;;;112.82;53.22;;;11.70;59.40;;;;;;4889160;28;89343;-79
2024/01/08 11:49:51;;;;;;;113.10;53.22;;;11.70;59.20;;;;;;4883285;28;89505;-80
2024/01/08 11:52:18;;;;;;;112.63;53.22;;;11.70;59.20;;;;;;4884484;28;88901;-80
2024/01/08 11:54:48;;;;;;;113.32;53.35;;;11.70;59.10;;;;;;4887586;28;89297;-80
2024/01/08 11:57:17;;;;;;;112.20;52.83;;;11.70;59.20;;;;;;4889479;28;89582;-80
2024/01/08 11:59:44;;;;;;;112.05;52.97;;;11.70;59.20;;;;;;4885924;28;91787;-80
2024/01/08 12:02:15;;;;;;;114.15;53.50;;;11.60;59.20;;;;;;4881847;28;90371;-80
2024/01/08 12:05:01;;;;;;;112.60;53.08;;;11.60;59.20;;;;;;4887829;28;89115;-83
2024/01/08 12:07:27;;;;;;;113.28;53.20;;;11.70;59.30;;;;;;4885753;28;90943;-83
2024/01/08 12:09:54;;;;;;;112.90;52.88;;;11.60;59.10;;;;;;4889560;28;89682;-83
2024/01/08 12:12:22;;;;;;;111.47;52.72;;;11.60;59.30;;;;;;4888826;28;89268;-83
2024/01/08 12:14:49;;;;;;;112.90;53.05;;;11.60;59.20;;;;;;4890010;28;88997;-83